createdAt,value
2022-09-03T00:00:05.549Z,70.96
2022-09-03T00:00:15.529Z,70.96
2022-09-03T00:00:25.559Z,70.96
2022-09-03T00:00:36.229Z,70.96
2022-09-03T00:00:45.524Z,70.93
2022-09-03T00:00:55.531Z,71.06
2022-09-03T00:01:05.533Z,71.16
2022-09-03T00:01:16.284Z,71.13
2022-09-03T00:01:25.626Z,71.16
2022-09-03T00:01:35.652Z,71.06
2022-09-03T00:01:45.561Z,70.96
2022-09-03T00:01:55.642Z,70.93
2022-09-03T00:02:05.567Z,70.93
2022-09-03T00:02:15.513Z,70.96
2022-09-03T00:02:25.570Z,71.06
2022-09-03T00:02:36.282Z,71.06
2022-09-03T00:02:45.778Z,71.13
2022-09-03T00:02:55.579Z,71.16
2022-09-03T00:03:06.327Z,71.03
2022-09-03T00:03:15.527Z,71.03
2022-09-03T00:03:25.518Z,71.03
2022-09-03T00:03:35.506Z,71.03
2022-09-03T00:03:45.516Z,71.03
2022-09-03T00:03:55.522Z,71.03
2022-09-03T00:04:05.508Z,71.03
2022-09-03T00:04:15.512Z,71.06
2022-09-03T00:04:25.949Z,70.96
2022-09-03T00:04:35.513Z,71.03
2022-09-03T00:04:45.627Z,71.03
2022-09-03T00:04:55.667Z,71.03
2022-09-03T00:05:05.512Z,71.03
2022-09-03T00:05:15.518Z,71.13
2022-09-03T00:05:25.521Z,71.13
2022-09-03T00:05:35.498Z,71.13
2022-09-03T00:05:45.520Z,71.06
2022-09-03T00:05:55.504Z,71.03
2022-09-03T00:06:05.502Z,70.93
2022-09-03T00:06:15.498Z,70.93
2022-09-03T00:06:25.499Z,70.86
2022-09-03T00:06:35.500Z,70.83
2022-09-03T00:06:45.510Z,70.93
2022-09-03T00:06:55.505Z,70.96
2022-09-03T00:07:05.500Z,71.03
2022-09-03T00:07:15.493Z,71.03
2022-09-03T00:07:25.495Z,71.03
2022-09-03T00:07:35.498Z,71.03
2022-09-03T00:07:45.504Z,71.03
2022-09-03T00:07:55.497Z,71.03
2022-09-03T00:08:05.513Z,71.13
2022-09-03T00:08:16.266Z,71.16
2022-09-03T00:08:25.498Z,71.26
2022-09-03T00:08:35.483Z,71.13
2022-09-03T00:08:45.514Z,71.13
2022-09-03T00:08:55.544Z,71.23
2022-09-03T00:09:05.493Z,71.13
2022-09-03T00:09:15.481Z,71.13
2022-09-03T00:09:25.486Z,71.13
2022-09-03T00:09:35.492Z,71.13
2022-09-03T00:09:45.486Z,71.13
2022-09-03T00:09:55.486Z,71.13
2022-09-03T00:10:05.526Z,71.16
2022-09-03T00:10:15.677Z,71.13
2022-09-03T00:10:25.490Z,71.13
2022-09-03T00:10:35.487Z,71.16
2022-09-03T00:10:45.488Z,71.13
2022-09-03T00:10:56.253Z,71.03
2022-09-03T00:11:05.500Z,71.03
2022-09-03T00:11:15.481Z,71.13
2022-09-03T00:11:25.492Z,71.13
2022-09-03T00:11:35.490Z,70.62
2022-09-03T00:11:45.479Z,70.35
2022-09-03T00:11:55.543Z,70.15
2022-09-03T00:12:05.471Z,70.01
2022-09-03T00:12:15.496Z,70.12
2022-09-03T00:12:25.500Z,70.21
2022-09-03T00:12:35.497Z,70.56
2022-09-03T00:12:45.487Z,70.62
2022-09-03T00:12:55.475Z,70.72
2022-09-03T00:13:05.550Z,70.93
2022-09-03T00:13:15.646Z,71.13
2022-09-03T00:13:25.481Z,71.13
2022-09-03T00:13:35.462Z,71.03
2022-09-03T00:13:45.473Z,70.62
2022-09-03T00:13:55.509Z,70.21
2022-09-03T00:14:05.482Z,70.12
2022-09-03T00:14:15.476Z,70.12
2022-09-03T00:14:25.470Z,70.21
2022-09-03T00:14:35.461Z,70.32
2022-09-03T00:14:45.463Z,70.32
2022-09-03T00:14:55.470Z,70.12
2022-09-03T00:15:06.244Z,70.21
2022-09-03T00:15:15.588Z,70.32
2022-09-03T00:15:25.463Z,70.52
2022-09-03T00:15:35.535Z,70.72
2022-09-03T00:15:45.522Z,70.83
2022-09-03T00:15:55.514Z,70.62
2022-09-03T00:16:05.564Z,70.01
2022-09-03T00:16:15.506Z,69.71
2022-09-03T00:16:25.502Z,69.71
2022-09-03T00:16:35.458Z,69.64
2022-09-03T00:16:45.468Z,69.41
2022-09-03T00:16:55.465Z,69.61
2022-09-03T00:17:05.477Z,69.51
2022-09-03T00:17:15.530Z,69.54
2022-09-03T00:17:25.452Z,69.61
2022-09-03T00:17:35.464Z,69.81
2022-09-03T00:17:45.447Z,70.01
2022-09-03T00:17:56.236Z,70.12
2022-09-03T00:18:05.449Z,70.32
2022-09-03T00:18:15.539Z,70.32
2022-09-03T00:18:25.651Z,70.42
2022-09-03T00:18:35.443Z,70.56
2022-09-03T00:18:45.445Z,70.72
2022-09-03T00:18:55.449Z,70.93
2022-09-03T00:19:05.453Z,71.03
2022-09-03T00:19:16.245Z,70.72
2022-09-03T00:19:25.461Z,70.45
2022-09-03T00:19:35.457Z,70.32
2022-09-03T00:19:45.440Z,70.12
2022-09-03T00:19:55.483Z,70.25
2022-09-03T00:20:05.457Z,70.21
2022-09-03T00:20:15.447Z,70.32
2022-09-03T00:20:25.823Z,70.42
2022-09-03T00:20:35.457Z,70.42
2022-09-03T00:20:45.437Z,70.21
2022-09-03T00:20:55.427Z,70.05
2022-09-03T00:21:05.442Z,69.92
2022-09-03T00:21:15.448Z,70.01
2022-09-03T00:21:25.527Z,70.25
2022-09-03T00:21:36.244Z,70.15
2022-09-03T00:21:45.442Z,69.95
2022-09-03T00:21:55.438Z,69.81
2022-09-03T00:22:05.472Z,69.81
2022-09-03T00:22:15.450Z,69.81
2022-09-03T00:22:25.437Z,69.81
2022-09-03T00:22:35.429Z,70.01
2022-09-03T00:22:46.259Z,70.15
2022-09-03T00:22:55.446Z,69.92
2022-09-03T00:23:05.445Z,69.84
2022-09-03T00:23:15.518Z,70.01
2022-09-03T00:23:25.479Z,70.15
2022-09-03T00:23:36.238Z,70.05
2022-09-03T00:23:45.419Z,70.05
2022-09-03T00:23:55.490Z,70.15
2022-09-03T00:24:05.417Z,70.25
2022-09-03T00:24:15.413Z,70.32
2022-09-03T00:24:25.416Z,70.62
2022-09-03T00:24:35.424Z,70.76
2022-09-03T00:24:45.428Z,70.96
2022-09-03T00:24:55.411Z,70.86
2022-09-03T00:25:05.423Z,70.86
2022-09-03T00:25:15.419Z,70.86
2022-09-03T00:25:25.438Z,70.65
2022-09-03T00:25:36.248Z,70.52
2022-09-03T00:25:45.427Z,70.72
2022-09-03T00:25:55.424Z,70.86
2022-09-03T00:26:05.432Z,71.06
2022-09-03T00:26:15.438Z,71.13
2022-09-03T00:26:25.456Z,71.06
2022-09-03T00:26:35.401Z,70.83
2022-09-03T00:26:45.419Z,71.06
2022-09-03T00:26:55.408Z,71.16
2022-09-03T00:27:05.476Z,71.37
2022-09-03T00:27:15.399Z,71.26
2022-09-03T00:27:25.412Z,71.16
2022-09-03T00:27:35.467Z,71.06
2022-09-03T00:27:45.402Z,70.93
2022-09-03T00:27:55.423Z,70.96
2022-09-03T00:28:05.405Z,71.06
2022-09-03T00:28:15.528Z,71.06
2022-09-03T00:28:25.410Z,71.26
2022-09-03T00:28:35.497Z,71.26
2022-09-03T00:28:45.401Z,71.16
2022-09-03T00:28:55.414Z,71.16
2022-09-03T00:29:05.413Z,71.16
2022-09-03T00:29:15.404Z,70.96
2022-09-03T00:29:25.416Z,70.86
2022-09-03T00:29:35.410Z,70.86
2022-09-03T00:29:45.397Z,70.65
2022-09-03T00:29:55.384Z,70.35
2022-09-03T00:30:05.424Z,70.25
2022-09-03T00:30:17.065Z,70.25
2022-09-03T00:30:26.261Z,70.15
2022-09-03T00:30:35.386Z,70.25
2022-09-03T00:30:45.476Z,70.25
2022-09-03T00:30:55.455Z,70.35
2022-09-03T00:31:05.421Z,70.35
2022-09-03T00:31:15.475Z,70.45
2022-09-03T00:31:25.494Z,70.52
2022-09-03T00:31:35.462Z,70.65
2022-09-03T00:31:45.465Z,70.52
2022-09-03T00:31:55.401Z,70.05
2022-09-03T00:32:05.390Z,69.74
2022-09-03T00:32:15.410Z,69.64
2022-09-03T00:32:25.400Z,69.54
2022-09-03T00:32:35.390Z,69.54
2022-09-03T00:32:45.378Z,69.54
2022-09-03T00:32:55.383Z,69.54
2022-09-03T00:33:05.386Z,69.64
2022-09-03T00:33:15.373Z,69.81
2022-09-03T00:33:25.388Z,70.15
2022-09-03T00:33:35.382Z,70.25
2022-09-03T00:33:45.420Z,70.21
2022-09-03T00:33:55.378Z,70.15
2022-09-03T00:34:05.386Z,70.01
2022-09-03T00:34:15.371Z,70.21
2022-09-03T00:34:25.373Z,70.45
2022-09-03T00:34:35.383Z,70.56
2022-09-03T00:34:45.372Z,70.56
2022-09-03T00:34:55.371Z,70.56
2022-09-03T00:35:05.400Z,70.25
2022-09-03T00:35:15.393Z,69.95
2022-09-03T00:35:25.364Z,69.71
2022-09-03T00:35:35.365Z,69.54
2022-09-03T00:35:45.432Z,69.54
2022-09-03T00:35:56.251Z,69.61
2022-09-03T00:36:05.365Z,69.81
2022-09-03T00:36:15.362Z,69.54
2022-09-03T00:36:25.371Z,69.20
2022-09-03T00:36:35.370Z,69.00
2022-09-03T00:36:45.400Z,68.80
2022-09-03T00:36:55.366Z,68.93
2022-09-03T00:37:05.386Z,68.93
2022-09-03T00:37:16.266Z,69.13
2022-09-03T00:37:25.376Z,69.34
2022-09-03T00:37:37.080Z,69.41
2022-09-03T00:37:45.412Z,69.64
2022-09-03T00:37:55.380Z,69.64
2022-09-03T00:38:05.353Z,69.71
2022-09-03T00:38:15.457Z,69.64
2022-09-03T00:38:25.365Z,69.61
2022-09-03T00:38:35.371Z,69.64
2022-09-03T00:38:45.360Z,69.64
2022-09-03T00:38:55.349Z,69.61
2022-09-03T00:39:05.354Z,69.64
2022-09-03T00:39:15.359Z,69.64
2022-09-03T00:39:25.387Z,69.71
2022-09-03T00:39:35.404Z,69.92
2022-09-03T00:39:46.287Z,69.95
2022-09-03T00:39:55.470Z,69.81
2022-09-03T00:40:05.426Z,69.84
2022-09-03T00:40:15.371Z,69.74
2022-09-03T00:40:25.339Z,69.61
2022-09-03T00:40:35.343Z,69.74
2022-09-03T00:40:45.343Z,69.95
2022-09-03T00:40:55.344Z,69.92
2022-09-03T00:41:05.443Z,69.95
2022-09-03T00:41:15.374Z,70.05
2022-09-03T00:41:25.434Z,69.95
2022-09-03T00:41:35.342Z,69.64
2022-09-03T00:41:45.340Z,69.24
2022-09-03T00:41:55.356Z,69.03
2022-09-03T00:42:05.384Z,68.90
2022-09-03T00:42:15.458Z,68.93
2022-09-03T00:42:25.357Z,69.03
2022-09-03T00:42:35.339Z,69.24
2022-09-03T00:42:45.358Z,69.51
2022-09-03T00:42:55.417Z,69.64
2022-09-03T00:43:05.346Z,69.54
2022-09-03T00:43:15.336Z,69.54
2022-09-03T00:43:25.421Z,69.54
2022-09-03T00:43:35.348Z,69.44
2022-09-03T00:43:45.345Z,69.44
2022-09-03T00:43:55.442Z,69.34
2022-09-03T00:44:05.336Z,69.34
2022-09-03T00:44:15.498Z,69.34
2022-09-03T00:44:25.325Z,69.34
2022-09-03T00:44:35.355Z,69.34
2022-09-03T00:44:45.335Z,69.34
2022-09-03T00:44:55.331Z,69.44
2022-09-03T00:45:05.324Z,69.54
2022-09-03T00:45:16.253Z,69.74
2022-09-03T00:45:25.429Z,69.74
2022-09-03T00:45:35.363Z,69.64
2022-09-03T00:45:45.328Z,69.54
2022-09-03T00:45:55.336Z,69.44
2022-09-03T00:46:05.364Z,69.24
2022-09-03T00:46:15.464Z,69.24
2022-09-03T00:46:25.498Z,69.03
2022-09-03T00:46:35.393Z,69.03
2022-09-03T00:46:45.378Z,69.03
2022-09-03T00:46:55.343Z,68.93
2022-09-03T00:47:05.321Z,68.83
2022-09-03T00:47:15.313Z,68.83
2022-09-03T00:47:25.308Z,68.93
2022-09-03T00:47:35.391Z,69.03
2022-09-03T00:47:45.354Z,69.17
2022-09-03T00:47:55.310Z,69.24
2022-09-03T00:48:05.325Z,68.96
2022-09-03T00:48:17.470Z,69.03
2022-09-03T00:48:27.858Z,69.13
2022-09-03T00:48:35.427Z,69.24
2022-09-03T00:48:45.315Z,69.13
2022-09-03T00:48:55.320Z,69.13
2022-09-03T00:49:05.301Z,69.13
2022-09-03T00:49:15.335Z,69.13
2022-09-03T00:49:25.372Z,69.13
2022-09-03T00:49:35.330Z,69.10
2022-09-03T00:49:45.301Z,69.13
2022-09-03T00:49:55.306Z,69.07
2022-09-03T00:50:05.332Z,69.03
2022-09-03T00:50:16.255Z,69.13
2022-09-03T00:50:26.397Z,69.17
2022-09-03T00:50:35.304Z,69.03
2022-09-03T00:50:45.349Z,68.93
2022-09-03T00:50:55.314Z,68.93
2022-09-03T00:51:05.306Z,68.93
2022-09-03T00:51:16.264Z,68.93
2022-09-03T00:51:25.353Z,69.03
2022-09-03T00:51:35.337Z,69.24
2022-09-03T00:51:45.315Z,69.13
2022-09-03T00:51:55.306Z,69.13
2022-09-03T00:52:05.309Z,68.93
2022-09-03T00:52:15.299Z,68.83
2022-09-03T00:52:25.316Z,68.73
2022-09-03T00:52:35.356Z,68.83
2022-09-03T00:52:45.289Z,68.83
2022-09-03T00:52:55.309Z,68.93
2022-09-03T00:53:05.328Z,68.93
2022-09-03T00:53:15.286Z,69.07
2022-09-03T00:53:25.288Z,69.17
2022-09-03T00:53:35.294Z,69.13
2022-09-03T00:53:45.289Z,69.13
2022-09-03T00:53:55.294Z,69.03
2022-09-03T00:54:05.298Z,68.93
2022-09-03T00:54:15.290Z,68.96
2022-09-03T00:54:25.275Z,68.96
2022-09-03T00:54:38.294Z,68.87
2022-09-03T00:54:45.271Z,68.87
2022-09-03T00:54:55.301Z,68.96
2022-09-03T00:55:05.281Z,68.96
2022-09-03T00:55:15.276Z,68.83
2022-09-03T00:55:25.278Z,68.87
2022-09-03T00:55:35.367Z,68.87
2022-09-03T00:55:45.279Z,68.93
2022-09-03T00:55:55.280Z,68.96
2022-09-03T00:56:05.269Z,68.83
2022-09-03T00:56:15.276Z,68.76
2022-09-03T00:56:25.282Z,68.66
2022-09-03T00:56:35.355Z,68.66
2022-09-03T00:56:45.354Z,68.76
2022-09-03T00:56:55.289Z,68.83
2022-09-03T00:57:05.289Z,68.87
2022-09-03T00:57:15.281Z,68.87
2022-09-03T00:57:25.335Z,68.87
2022-09-03T00:57:35.269Z,68.83
2022-09-03T00:57:47.613Z,68.73
2022-09-03T00:57:55.291Z,68.66
2022-09-03T00:58:05.263Z,68.63
2022-09-03T00:58:15.323Z,68.56
2022-09-03T00:58:25.259Z,68.46
2022-09-03T00:58:35.265Z,68.32
2022-09-03T00:58:45.291Z,68.43
2022-09-03T00:58:55.267Z,68.35
2022-09-03T00:59:05.261Z,68.35
2022-09-03T00:59:15.289Z,68.35
2022-09-03T00:59:25.266Z,68.46
2022-09-03T00:59:35.271Z,68.46
2022-09-03T00:59:45.270Z,68.56
2022-09-03T00:59:55.260Z,68.56
2022-09-03T01:00:05.263Z,68.76
2022-09-03T01:00:15.271Z,68.96
2022-09-03T01:00:25.432Z,68.96
2022-09-03T01:00:35.264Z,68.93
2022-09-03T01:00:45.285Z,68.87
2022-09-03T01:00:55.295Z,68.96
2022-09-03T01:01:05.256Z,68.87
2022-09-03T01:01:15.342Z,68.90
2022-09-03T01:01:25.364Z,68.87
2022-09-03T01:01:35.419Z,68.76
2022-09-03T01:01:45.436Z,68.66
2022-09-03T01:01:55.408Z,68.66
2022-09-03T01:02:05.398Z,68.66
2022-09-03T01:02:15.369Z,68.76
2022-09-03T01:02:25.402Z,68.87
2022-09-03T01:02:35.411Z,68.87
2022-09-03T01:02:45.391Z,68.96
2022-09-03T01:02:55.337Z,68.96
2022-09-03T01:03:05.242Z,69.10
2022-09-03T01:03:15.249Z,69.17
2022-09-03T01:03:25.268Z,69.17
2022-09-03T01:03:35.238Z,69.13
2022-09-03T01:03:45.232Z,69.27
2022-09-03T01:03:55.257Z,69.30
2022-09-03T01:04:05.253Z,69.37
2022-09-03T01:04:15.243Z,69.37
2022-09-03T01:04:25.244Z,69.47
2022-09-03T01:04:35.257Z,69.40
2022-09-03T01:04:45.265Z,69.27
2022-09-03T01:04:55.241Z,69.37
2022-09-03T01:05:05.386Z,69.40
2022-09-03T01:05:15.237Z,69.37
2022-09-03T01:05:25.241Z,69.27
2022-09-03T01:05:35.235Z,69.51
2022-09-03T01:05:45.234Z,69.57
2022-09-03T01:05:58.549Z,69.71
2022-09-03T01:06:05.242Z,69.71
2022-09-03T01:06:15.237Z,69.60
2022-09-03T01:06:25.247Z,69.51
2022-09-03T01:06:35.237Z,69.40
2022-09-03T01:06:45.316Z,69.40
2022-09-03T01:06:55.284Z,69.40
2022-09-03T01:07:05.773Z,69.51
2022-09-03T01:07:15.379Z,69.40
2022-09-03T01:07:25.252Z,69.51
2022-09-03T01:07:35.223Z,69.60
2022-09-03T01:07:45.223Z,69.57
2022-09-03T01:07:55.220Z,69.60
2022-09-03T01:08:05.225Z,69.51
2022-09-03T01:08:15.261Z,69.60
2022-09-03T01:08:25.227Z,69.60
2022-09-03T01:08:35.224Z,69.60
2022-09-03T01:08:45.235Z,69.60
2022-09-03T01:08:55.228Z,69.51
2022-09-03T01:09:05.229Z,69.40
2022-09-03T01:09:15.295Z,69.30
2022-09-03T01:09:25.838Z,69.30
2022-09-03T01:09:35.213Z,69.27
2022-09-03T01:09:45.210Z,69.30
2022-09-03T01:09:55.778Z,69.30
2022-09-03T01:10:05.219Z,69.30
2022-09-03T01:10:15.232Z,69.40
2022-09-03T01:10:25.210Z,69.27
2022-09-03T01:10:35.223Z,69.10
2022-09-03T01:10:45.204Z,68.90
2022-09-03T01:10:55.213Z,68.90
2022-09-03T01:11:05.214Z,68.79
2022-09-03T01:11:15.790Z,68.79
2022-09-03T01:11:25.216Z,68.70
2022-09-03T01:11:35.216Z,68.79
2022-09-03T01:11:45.215Z,68.79
2022-09-03T01:11:55.219Z,68.90
2022-09-03T01:12:05.275Z,68.79
2022-09-03T01:12:15.217Z,68.70
2022-09-03T01:12:25.200Z,68.59
2022-09-03T01:12:35.222Z,68.39
2022-09-03T01:12:45.215Z,68.29
2022-09-03T01:12:55.227Z,68.19
2022-09-03T01:13:05.193Z,68.08
2022-09-03T01:13:15.202Z,68.39
2022-09-03T01:13:25.298Z,68.49
2022-09-03T01:13:35.195Z,68.39
2022-09-03T01:13:45.199Z,68.35
2022-09-03T01:13:55.207Z,68.66
2022-09-03T01:14:05.188Z,68.90
2022-09-03T01:14:15.203Z,68.90
2022-09-03T01:14:25.197Z,68.70
2022-09-03T01:14:35.197Z,68.59
2022-09-03T01:14:45.198Z,68.90
2022-09-03T01:14:55.246Z,69.20
2022-09-03T01:15:05.192Z,69.30
2022-09-03T01:15:15.307Z,69.30
2022-09-03T01:15:25.256Z,69.37
2022-09-03T01:15:35.266Z,69.51
2022-09-03T01:15:45.214Z,69.60
2022-09-03T01:15:55.256Z,69.60
2022-09-03T01:16:05.243Z,69.71
2022-09-03T01:16:15.265Z,69.81
2022-09-03T01:16:25.839Z,69.71
2022-09-03T01:16:35.204Z,69.71
2022-09-03T01:16:45.181Z,69.71
2022-09-03T01:16:55.195Z,69.81
2022-09-03T01:17:05.189Z,69.91
2022-09-03T01:17:15.228Z,69.98
2022-09-03T01:17:25.180Z,70.21
2022-09-03T01:17:35.375Z,70.42
2022-09-03T01:17:45.187Z,70.42
2022-09-03T01:17:55.184Z,70.42
2022-09-03T01:18:05.211Z,70.42
2022-09-03T01:18:15.183Z,70.32
2022-09-03T01:18:25.385Z,70.21
2022-09-03T01:18:35.173Z,70.21
2022-09-03T01:18:45.212Z,70.21
2022-09-03T01:18:55.182Z,70.11
2022-09-03T01:19:05.175Z,70.01
2022-09-03T01:19:15.814Z,69.88
2022-09-03T01:19:25.200Z,69.81
2022-09-03T01:19:35.253Z,69.68
2022-09-03T01:19:45.170Z,69.51
2022-09-03T01:19:55.196Z,69.37
2022-09-03T01:20:05.169Z,69.30
2022-09-03T01:20:15.169Z,69.30
2022-09-03T01:20:25.177Z,69.20
2022-09-03T01:20:35.206Z,69.10
2022-09-03T01:20:45.162Z,69.20
2022-09-03T01:20:55.189Z,69.30
2022-09-03T01:21:05.187Z,69.30
2022-09-03T01:21:15.179Z,69.40
2022-09-03T01:21:25.193Z,69.40
2022-09-03T01:21:35.185Z,69.51
2022-09-03T01:21:45.167Z,69.60
2022-09-03T01:21:55.166Z,69.51
2022-09-03T01:22:05.255Z,69.60
2022-09-03T01:22:15.163Z,69.51
2022-09-03T01:22:25.204Z,69.60
2022-09-03T01:22:35.190Z,69.60
2022-09-03T01:22:45.196Z,69.60
2022-09-03T01:22:55.152Z,69.60
2022-09-03T01:23:05.175Z,69.60
2022-09-03T01:23:15.180Z,69.60
2022-09-03T01:23:25.172Z,69.71
2022-09-03T01:23:35.153Z,69.81
2022-09-03T01:23:45.183Z,69.91
2022-09-03T01:23:55.196Z,70.01
2022-09-03T01:24:05.148Z,70.01
2022-09-03T01:24:15.142Z,70.01
2022-09-03T01:24:25.782Z,70.01
2022-09-03T01:24:35.158Z,70.01
2022-09-03T01:24:45.148Z,70.11
2022-09-03T01:24:55.166Z,70.21
2022-09-03T01:25:05.224Z,70.11
2022-09-03T01:25:15.146Z,70.01
2022-09-03T01:25:25.142Z,70.01
2022-09-03T01:25:35.144Z,70.25
2022-09-03T01:25:45.154Z,70.42
2022-09-03T01:25:55.148Z,70.52
2022-09-03T01:26:05.161Z,70.52
2022-09-03T01:26:15.222Z,70.62
2022-09-03T01:26:25.144Z,70.62
2022-09-03T01:26:35.134Z,70.62
2022-09-03T01:26:45.160Z,70.62
2022-09-03T01:26:55.136Z,70.62
2022-09-03T01:27:05.167Z,70.72
2022-09-03T01:27:15.161Z,70.72
2022-09-03T01:27:25.139Z,70.96
2022-09-03T01:27:35.192Z,71.06
2022-09-03T01:27:45.152Z,71.23
2022-09-03T01:27:55.197Z,71.36
2022-09-03T01:28:05.129Z,71.53
2022-09-03T01:28:15.156Z,71.67
2022-09-03T01:28:25.228Z,71.77
2022-09-03T01:28:35.138Z,71.88
2022-09-03T01:28:45.144Z,71.97
2022-09-03T01:28:55.137Z,71.97
2022-09-03T01:29:05.247Z,71.67
2022-09-03T01:29:15.186Z,71.57
2022-09-03T01:29:25.151Z,71.47
2022-09-03T01:29:35.145Z,71.47
2022-09-03T01:29:45.145Z,71.57
2022-09-03T01:29:55.186Z,71.67
2022-09-03T01:30:05.134Z,71.77
2022-09-03T01:30:15.116Z,72.08
2022-09-03T01:30:25.169Z,72.28
2022-09-03T01:30:35.189Z,72.28
2022-09-03T01:30:45.186Z,72.41
2022-09-03T01:30:55.171Z,72.58
2022-09-03T01:31:05.193Z,72.58
2022-09-03T01:31:15.181Z,72.58
2022-09-03T01:31:25.150Z,72.58
2022-09-03T01:31:35.155Z,72.58
2022-09-03T01:31:45.130Z,72.78
2022-09-03T01:31:55.127Z,72.78
2022-09-03T01:32:05.131Z,72.69
2022-09-03T01:32:15.113Z,72.58
2022-09-03T01:32:25.131Z,72.69
2022-09-03T01:32:35.105Z,72.69
2022-09-03T01:32:45.189Z,72.69
2022-09-03T01:32:55.111Z,72.69
2022-09-03T01:33:05.108Z,72.48
2022-09-03T01:33:15.131Z,72.28
2022-09-03T01:33:25.124Z,72.17
2022-09-03T01:33:35.112Z,72.38
2022-09-03T01:33:45.181Z,72.38
2022-09-03T01:33:55.103Z,72.48
2022-09-03T01:34:05.124Z,72.48
2022-09-03T01:34:17.773Z,72.72
2022-09-03T01:34:25.183Z,72.78
2022-09-03T01:34:35.110Z,72.78
2022-09-03T01:34:45.113Z,72.92
2022-09-03T01:34:55.102Z,72.82
2022-09-03T01:35:05.113Z,72.69
2022-09-03T01:35:15.120Z,72.58
2022-09-03T01:35:25.099Z,72.58
2022-09-03T01:35:35.141Z,72.58
2022-09-03T01:35:45.112Z,72.69
2022-09-03T01:35:55.098Z,72.58
2022-09-03T01:36:05.129Z,72.78
2022-09-03T01:36:15.158Z,72.82
2022-09-03T01:36:25.097Z,73.02
2022-09-03T01:36:35.127Z,73.09
2022-09-03T01:36:45.130Z,73.19
2022-09-03T01:36:55.117Z,73.33
2022-09-03T01:37:05.091Z,73.53
2022-09-03T01:37:15.097Z,73.39
2022-09-03T01:37:25.097Z,73.60
2022-09-03T01:37:35.156Z,73.70
2022-09-03T01:37:45.098Z,73.83
2022-09-03T01:37:55.146Z,73.60
2022-09-03T01:38:05.138Z,73.74
2022-09-03T01:38:15.102Z,73.60
2022-09-03T01:38:25.314Z,73.53
2022-09-03T01:38:35.080Z,73.50
2022-09-03T01:38:45.086Z,73.63
2022-09-03T01:38:55.148Z,73.63
2022-09-03T01:39:05.138Z,73.53
2022-09-03T01:39:15.107Z,73.74
2022-09-03T01:39:25.131Z,73.63
2022-09-03T01:39:35.142Z,73.80
2022-09-03T01:39:45.246Z,73.60
2022-09-03T01:39:55.189Z,73.83
2022-09-03T01:40:05.187Z,73.83
2022-09-03T01:40:15.091Z,73.74
2022-09-03T01:40:25.124Z,73.94
2022-09-03T01:40:35.082Z,73.90
2022-09-03T01:40:45.132Z,74.01
2022-09-03T01:40:55.091Z,73.83
2022-09-03T01:41:05.080Z,73.94
2022-09-03T01:41:15.082Z,73.80
2022-09-03T01:41:25.078Z,73.74
2022-09-03T01:41:35.067Z,74.01
2022-09-03T01:41:45.068Z,73.94
2022-09-03T01:41:55.080Z,73.94
2022-09-03T01:42:05.070Z,74.04
2022-09-03T01:42:15.062Z,74.04
2022-09-03T01:42:25.082Z,74.14
2022-09-03T01:42:35.070Z,74.14
2022-09-03T01:42:45.777Z,74.14
2022-09-03T01:42:55.130Z,74.34
2022-09-03T01:43:05.121Z,74.44
2022-09-03T01:43:15.063Z,74.44
2022-09-03T01:43:25.076Z,74.48
2022-09-03T01:43:35.070Z,74.44
2022-09-03T01:43:45.601Z,74.24
2022-09-03T01:43:55.071Z,74.24
2022-09-03T01:44:05.069Z,74.14
2022-09-03T01:44:15.070Z,74.04
2022-09-03T01:44:25.142Z,73.94
2022-09-03T01:44:35.098Z,73.94
2022-09-03T01:44:45.066Z,73.74
2022-09-03T01:44:55.080Z,73.63
2022-09-03T01:45:05.086Z,73.63
2022-09-03T01:45:15.051Z,73.83
2022-09-03T01:45:25.055Z,73.83
2022-09-03T01:45:35.094Z,73.94
2022-09-03T01:45:51.093Z,73.94
2022-09-03T01:45:55.197Z,73.70
2022-09-03T01:46:05.985Z,73.74
2022-09-03T01:46:17.006Z,73.94
2022-09-03T01:46:25.091Z,73.74
2022-09-03T01:46:35.091Z,73.70
2022-09-03T01:46:45.198Z,73.53
2022-09-03T01:46:55.116Z,73.43
2022-09-03T01:47:05.061Z,73.33
2022-09-03T01:47:15.041Z,73.33
2022-09-03T01:47:25.773Z,72.99
2022-09-03T01:47:35.144Z,73.02
2022-09-03T01:47:45.043Z,73.22
2022-09-03T01:47:55.034Z,73.13
2022-09-03T01:48:05.054Z,73.22
2022-09-03T01:48:15.133Z,73.22
2022-09-03T01:48:25.168Z,73.43
2022-09-03T01:48:35.037Z,73.22
2022-09-03T01:48:45.119Z,73.16
2022-09-03T01:48:55.036Z,73.02
2022-09-03T01:49:05.040Z,73.16
2022-09-03T01:49:15.036Z,73.43
2022-09-03T01:49:25.036Z,73.63
2022-09-03T01:49:35.069Z,74.14
2022-09-03T01:49:45.072Z,74.14
2022-09-03T01:49:55.040Z,74.24
2022-09-03T01:50:05.044Z,74.14
2022-09-03T01:50:15.066Z,73.94
2022-09-03T01:50:25.048Z,73.97
2022-09-03T01:50:35.036Z,74.18
2022-09-03T01:50:45.053Z,73.94
2022-09-03T01:50:55.026Z,74.14
2022-09-03T01:51:05.027Z,74.28
2022-09-03T01:51:15.037Z,74.28
2022-09-03T01:51:25.026Z,74.07
2022-09-03T01:51:35.090Z,73.97
2022-09-03T01:51:45.067Z,74.18
2022-09-03T01:51:55.126Z,74.28
2022-09-03T01:52:05.026Z,74.18
2022-09-03T01:52:15.027Z,74.38
2022-09-03T01:52:25.879Z,74.38
2022-09-03T01:52:35.046Z,74.58
2022-09-03T01:52:45.033Z,74.58
2022-09-03T01:52:55.119Z,74.79
2022-09-03T01:53:05.808Z,74.79
2022-09-03T01:53:15.045Z,74.88
2022-09-03T01:53:25.071Z,74.79
2022-09-03T01:53:35.022Z,74.99
2022-09-03T01:53:45.027Z,74.99
2022-09-03T01:53:55.013Z,75.09
2022-09-03T01:54:05.028Z,75.29
2022-09-03T01:54:20.944Z,75.49
2022-09-03T01:54:25.037Z,75.70
2022-09-03T01:54:35.023Z,75.60
2022-09-03T01:54:45.012Z,75.49
2022-09-03T01:54:55.021Z,75.29
2022-09-03T01:55:05.018Z,75.29
2022-09-03T01:55:15.011Z,75.19
2022-09-03T01:55:25.017Z,75.09
2022-09-03T01:55:35.016Z,75.19
2022-09-03T01:55:45.038Z,75.19
2022-09-03T01:55:55.015Z,74.99
2022-09-03T01:56:05.020Z,74.88
2022-09-03T01:56:15.012Z,74.79
2022-09-03T01:56:25.003Z,74.82
2022-09-03T01:56:35.015Z,74.99
2022-09-03T01:56:45.076Z,74.88
2022-09-03T01:56:55.030Z,74.68
2022-09-03T01:57:05.061Z,74.41
2022-09-03T01:57:35.679Z,74.88
2022-09-03T01:57:35.762Z,74.58
2022-09-03T01:57:37.275Z,74.92
2022-09-03T01:57:45.023Z,74.79
2022-09-03T01:57:54.997Z,74.99
2022-09-03T01:58:05.000Z,74.99
2022-09-03T01:58:15.080Z,75.40
2022-09-03T01:58:25.182Z,75.94
2022-09-03T01:58:35.086Z,76.31
2022-09-03T01:58:45.013Z,76.86
2022-09-03T01:58:55.010Z,76.86
2022-09-03T01:59:05.800Z,76.72
2022-09-03T01:59:14.993Z,76.61
2022-09-03T01:59:25.016Z,76.55
2022-09-03T01:59:34.997Z,76.41
2022-09-03T01:59:44.999Z,76.55
2022-09-03T01:59:54.998Z,76.82
2022-09-03T02:00:04.999Z,77.16
2022-09-03T02:00:14.982Z,77.36
2022-09-03T02:00:25.009Z,77.47
2022-09-03T02:00:35.004Z,77.53
2022-09-03T02:00:44.994Z,77.83
2022-09-03T02:00:55.004Z,78.04
2022-09-03T02:01:05.006Z,78.14
2022-09-03T02:01:15.143Z,78.08
2022-09-03T02:01:25.071Z,77.97
2022-09-03T02:01:35.135Z,78.08
2022-09-03T02:01:45.064Z,77.97
2022-09-03T02:01:55.031Z,77.97
2022-09-03T02:02:04.992Z,78.08
2022-09-03T02:02:15.092Z,78.08
2022-09-03T02:02:25.063Z,78.08
2022-09-03T02:02:35.849Z,78.08
2022-09-03T02:02:45.041Z,78.08
2022-09-03T02:02:55.049Z,78.08
2022-09-03T02:03:04.988Z,77.97
2022-09-03T02:03:14.988Z,77.97
2022-09-03T02:03:24.993Z,77.97
2022-09-03T02:03:34.972Z,77.97
2022-09-03T02:03:45.055Z,78.08
2022-09-03T02:03:54.991Z,78.17
2022-09-03T02:04:04.978Z,78.28
2022-09-03T02:04:14.999Z,78.28
2022-09-03T02:04:24.989Z,78.28
2022-09-03T02:04:34.987Z,78.17
2022-09-03T02:04:44.990Z,78.08
2022-09-03T02:04:54.989Z,78.08
2022-09-03T02:05:05.052Z,77.97
2022-09-03T02:05:15.014Z,77.87
2022-09-03T02:05:25.071Z,77.87
2022-09-03T02:05:34.993Z,77.87
2022-09-03T02:05:44.963Z,77.97
2022-09-03T02:05:55.782Z,77.87
2022-09-03T02:06:04.982Z,77.87
2022-09-03T02:06:14.972Z,77.87
2022-09-03T02:06:24.979Z,77.87
2022-09-03T02:06:34.977Z,77.97
2022-09-03T02:06:44.966Z,77.97
2022-09-03T02:06:54.961Z,77.87
2022-09-03T02:07:04.973Z,77.77
2022-09-03T02:07:14.984Z,77.87
2022-09-03T02:07:24.976Z,77.77
2022-09-03T02:07:34.990Z,77.77
2022-09-03T02:07:45.053Z,77.77
2022-09-03T02:07:54.985Z,77.87
2022-09-03T02:08:04.965Z,77.87
2022-09-03T02:08:15.023Z,77.87
2022-09-03T02:08:25.054Z,77.87
2022-09-03T02:08:34.960Z,77.87
2022-09-03T02:08:44.954Z,77.87